createdAt,value
2023-03-15T00:04:10.315Z,0
2023-03-15T00:09:11.944Z,0
2023-03-15T00:14:13.605Z,0
2023-03-15T00:19:15.261Z,0
2023-03-15T00:24:16.874Z,0
2023-03-15T00:29:18.523Z,0
2023-03-15T00:34:20.325Z,0
2023-03-15T00:39:21.972Z,0
2023-03-15T00:44:23.653Z,0
2023-03-15T00:49:25.358Z,0
2023-03-15T00:54:26.990Z,393.63504
2023-03-15T00:59:28.696Z,421.51938
2023-03-15T01:04:30.299Z,425.25
2023-03-15T01:09:32.029Z,0
2023-03-15T01:14:33.701Z,0
2023-03-15T01:19:35.330Z,0
2023-03-15T01:24:37.037Z,0
2023-03-15T01:29:38.728Z,0
2023-03-15T01:34:40.320Z,0
2023-03-15T01:39:42.177Z,0
2023-03-15T01:44:43.810Z,0
2023-03-15T01:49:45.506Z,0
2023-03-15T01:54:47.144Z,417.84615
2023-03-15T01:59:48.890Z,371.77778
2023-03-15T02:04:50.729Z,421.51938
2023-03-15T02:09:52.334Z,410.66667
2023-03-15T02:14:54.023Z,400.2963
2023-03-15T02:19:55.638Z,396.94118
2023-03-15T02:24:57.273Z,429.03937
2023-03-15T02:29:58.882Z,403.70149
2023-03-15T02:35:00.558Z,396.94118
2023-03-15T02:40:02.222Z,390.37681
2023-03-15T02:45:03.863Z,414.22901
2023-03-15T02:50:05.726Z,429.03937
2023-03-15T02:55:07.395Z,410.66667
2023-03-15T03:00:09.020Z,400.2963
2023-03-15T03:05:10.666Z,421.51938
2023-03-15T03:10:12.416Z,384
2023-03-15T03:15:14.081Z,384
2023-03-15T03:20:15.731Z,377.80282
2023-03-15T03:25:17.362Z,384
2023-03-15T03:30:19.013Z,387.16547
2023-03-15T03:35:20.648Z,396.94118
2023-03-15T03:40:22.379Z,380.87943
2023-03-15T03:45:24.010Z,390.37681
2023-03-15T03:50:25.730Z,396.94118
2023-03-15T03:55:27.357Z,410.66667
2023-03-15T04:00:28.968Z,368.82759
2023-03-15T04:05:30.645Z,380.87943
2023-03-15T04:10:32.253Z,380.87943
2023-03-15T04:15:33.914Z,425.25
2023-03-15T04:20:35.746Z,417.84615
2023-03-15T04:25:37.371Z,429.03937
2023-03-15T04:30:39.082Z,407.15789
2023-03-15T04:35:40.751Z,396.94118
2023-03-15T04:40:42.379Z,380.87943
2023-03-15T04:45:43.991Z,407.15789
2023-03-15T04:50:45.591Z,396.94118
2023-03-15T04:55:47.236Z,390.37681
2023-03-15T05:00:48.930Z,425.25
2023-03-15T05:05:50.651Z,410.66667
2023-03-15T05:10:52.306Z,429.03937
2023-03-15T05:15:53.971Z,457.33333
2023-03-15T05:20:55.594Z,440.77419
2023-03-15T05:25:57.216Z,429.03937
2023-03-15T05:31:00.565Z,393.63504
2023-03-15T05:36:02.420Z,429.03937
2023-03-15T05:41:04.110Z,374.76923
2023-03-15T05:46:05.741Z,368.82759
2023-03-15T05:51:07.583Z,380.87943
2023-03-15T05:56:09.210Z,432.88889
2023-03-15T06:01:10.989Z,425.25
2023-03-15T06:06:12.589Z,414.22901
2023-03-15T06:11:14.216Z,400.2963
2023-03-15T06:16:15.917Z,390.37681
2023-03-15T06:21:17.676Z,371.77778
2023-03-15T06:26:19.342Z,363.04762
2023-03-15T06:31:21.048Z,387.16547
2023-03-15T06:36:22.705Z,368.82759
2023-03-15T06:41:24.393Z,365.91781
2023-03-15T06:46:26.073Z,365.91781
2023-03-15T06:51:27.721Z,357.42282
2023-03-15T06:56:29.305Z,349.26316
2023-03-15T07:01:31.059Z,341.41935
2023-03-15T07:06:32.739Z,365.91781
2023-03-15T07:11:34.336Z,346.61438
2023-03-15T07:16:35.943Z,336.35669
2023-03-15T07:21:37.576Z,349.26316
2023-03-15T07:26:39.391Z,344
2023-03-15T07:31:41.059Z,344
2023-03-15T07:36:42.705Z,396.94118
2023-03-15T07:41:44.361Z,400.2963
2023-03-15T07:46:46.000Z,390.37681
2023-03-15T07:51:47.712Z,429.03937
2023-03-15T07:56:49.319Z,414.22901
2023-03-15T08:01:51.118Z,403.70149
2023-03-15T08:06:52.777Z,384
2023-03-15T08:11:54.408Z,407.15789
2023-03-15T08:16:56.021Z,421.51938
2023-03-15T08:21:57.700Z,377.80282
2023-03-15T08:26:59.274Z,371.77778
2023-03-15T08:32:01.009Z,387.16547
2023-03-15T08:37:02.683Z,384
2023-03-15T08:42:04.429Z,390.37681
2023-03-15T08:47:06.065Z,407.15789
2023-03-15T08:52:07.685Z,393.63504
2023-03-15T08:57:09.308Z,417.84615
2023-03-15T09:02:11.007Z,403.70149
2023-03-15T09:07:12.714Z,396.94118
2023-03-15T09:12:14.440Z,374.76923
2023-03-15T09:17:16.183Z,371.77778
2023-03-15T09:22:34.851Z,390.37681
2023-03-15T09:27:39.994Z,414.22901
2023-03-15T09:32:41.728Z,387.16547
2023-03-15T09:37:43.366Z,365.91781
2023-03-15T09:42:45.006Z,368.82759
2023-03-15T09:47:46.685Z,354.66667
2023-03-15T09:52:48.344Z,363.04762
2023-03-15T09:57:49.957Z,365.91781
2023-03-15T10:02:51.583Z,360.21622
2023-03-15T10:07:53.208Z,365.91781
2023-03-15T10:12:54.901Z,384
2023-03-15T10:17:56.579Z,371.77778
2023-03-15T10:22:58.238Z,390.37681
2023-03-15T10:27:59.836Z,387.16547
2023-03-15T10:33:01.593Z,368.82759
2023-03-15T10:38:03.280Z,351.94702
2023-03-15T10:43:04.911Z,346.61438
2023-03-15T10:48:06.577Z,351.94702
2023-03-15T10:53:08.172Z,349.26316
2023-03-15T10:58:09.802Z,344
2023-03-15T11:03:11.430Z,346.61438
2023-03-15T11:08:13.128Z,329
2023-03-15T11:13:14.784Z,341.41935
2023-03-15T11:18:16.415Z,351.94702
2023-03-15T11:23:18.010Z,354.66667
2023-03-15T11:28:19.649Z,371.77778
2023-03-15T11:33:21.286Z,351.94702
2023-03-15T11:38:22.904Z,365.91781
2023-03-15T11:43:24.629Z,368.82759
2023-03-15T11:48:26.253Z,351.94702
2023-03-15T11:53:27.910Z,360.21622
2023-03-15T11:58:29.555Z,363.04762
2023-03-15T12:03:31.190Z,344
2023-03-15T12:08:32.855Z,349.26316
2023-03-15T12:13:34.495Z,341.41935
2023-03-15T12:18:36.116Z,331.42138
2023-03-15T12:23:37.808Z,321.91411
2023-03-15T12:28:39.700Z,288.13408
2023-03-15T12:33:41.334Z,333.87342
2023-03-15T12:38:42.940Z,319.60976
2023-03-15T12:43:44.574Z,300.06936
2023-03-15T12:48:46.293Z,306.35294
2023-03-15T12:53:47.916Z,306.35294
2023-03-15T12:58:49.559Z,321.91411
2023-03-15T13:03:51.201Z,302.13953
2023-03-15T13:08:52.978Z,315.08434
2023-03-15T13:13:54.654Z,333.87342
2023-03-15T13:18:56.312Z,338.87179
2023-03-15T13:23:57.904Z,255.11111
2023-03-15T13:28:59.568Z,247.44828
2023-03-15T13:34:01.218Z,282.46154
2023-03-15T13:39:02.849Z,292.0226
2023-03-15T13:44:04.439Z,290.06742
2023-03-15T13:49:06.054Z,317.33333
2023-03-15T13:54:07.690Z,333.87342
2023-03-15T13:59:09.331Z,310.66667
2023-03-15T14:04:10.920Z,306.35294
2023-03-15T14:09:12.626Z,288.13408
2023-03-15T14:14:14.285Z,319.60976
2023-03-15T14:19:16.197Z,292.0226
2023-03-15T14:24:17.818Z,331.42138
2023-03-15T14:29:19.482Z,338.87179
2023-03-15T14:34:21.304Z,349.26316
2023-03-15T14:39:22.904Z,310.66667
2023-03-15T14:44:24.542Z,326.6087
2023-03-15T14:49:26.347Z,329
2023-03-15T14:54:27.991Z,331.42138
2023-03-15T14:59:29.597Z,324.24691
2023-03-15T15:04:31.198Z,312.86228
2023-03-15T15:09:33.027Z,329
2023-03-15T15:14:34.686Z,326.6087
2023-03-15T15:19:36.293Z,321.91411
2023-03-15T15:24:38.031Z,329
2023-03-15T15:29:39.617Z,346.61438
2023-03-15T15:34:41.229Z,331.42138
2023-03-15T15:39:42.913Z,331.42138
2023-03-15T15:44:44.522Z,333.87342
2023-03-15T15:49:46.344Z,363.04762
2023-03-15T15:54:47.938Z,380.87943
2023-03-15T15:59:49.532Z,390.37681
2023-03-15T16:04:51.149Z,403.70149
2023-03-15T16:09:54.550Z,436.8
2023-03-15T16:14:57.264Z,421.51938
2023-03-15T16:19:58.859Z,470.49573
2023-03-15T16:25:00.831Z,448.91803
2023-03-15T16:30:02.518Z,453.09091
2023-03-15T16:35:04.146Z,444.81301
2023-03-15T16:40:05.788Z,432.88889
2023-03-15T16:45:07.327Z,470.49573
2023-03-15T16:50:08.980Z,470.49573
2023-03-15T16:55:10.762Z,489.13274
2023-03-15T17:00:12.470Z,453.09091
2023-03-15T17:05:14.063Z,475.03448
2023-03-15T17:10:15.850Z,504
2023-03-15T17:15:17.487Z,470.49573
2023-03-15T17:20:19.231Z,494
2023-03-15T17:25:21.039Z,479.65217
2023-03-15T17:30:22.769Z,0
2023-03-15T17:35:24.429Z,0
2023-03-15T17:40:26.281Z,0
2023-03-15T17:45:27.936Z,0
2023-03-15T17:50:29.584Z,0
2023-03-15T17:55:31.174Z,0
2023-03-15T18:00:32.870Z,0
2023-03-15T18:05:34.525Z,0
2023-03-15T18:10:36.163Z,530.66667
2023-03-15T18:15:37.809Z,0
2023-03-15T18:20:39.472Z,0
2023-03-15T18:25:41.114Z,0
2023-03-15T18:30:42.816Z,0
2023-03-15T18:35:44.520Z,0
2023-03-15T18:40:46.196Z,0
2023-03-15T18:45:47.956Z,0
2023-03-15T18:50:49.643Z,0
2023-03-15T18:55:51.283Z,0
2023-03-15T19:00:53.058Z,0
2023-03-15T19:05:54.673Z,0
2023-03-15T19:10:56.469Z,0
2023-03-15T19:15:58.357Z,0
2023-03-15T19:20:59.987Z,0
2023-03-15T19:26:01.599Z,0
2023-03-15T19:31:03.337Z,0
2023-03-15T19:36:05.006Z,0
2023-03-15T19:41:06.708Z,0
2023-03-15T19:46:08.374Z,0
2023-03-15T19:51:09.988Z,0
2023-03-15T19:56:11.595Z,0
2023-03-15T20:01:13.237Z,0
2023-03-15T20:06:14.903Z,0
2023-03-15T20:11:16.528Z,0
2023-03-15T20:16:18.171Z,0
2023-03-15T20:21:19.943Z,0
2023-03-15T20:26:21.571Z,0
2023-03-15T20:31:23.252Z,0
2023-03-15T20:36:24.956Z,0
2023-03-15T20:41:26.622Z,0
2023-03-15T20:46:28.222Z,0
2023-03-15T20:51:29.955Z,0
2023-03-15T20:56:31.681Z,0
2023-03-15T21:01:33.435Z,536.30769
2023-03-15T21:06:35.042Z,0
2023-03-15T21:11:36.755Z,0
2023-03-15T21:16:38.470Z,0
2023-03-15T21:21:40.157Z,536.30769
2023-03-15T21:26:41.790Z,0
2023-03-15T21:31:43.494Z,579.05155
2023-03-15T21:36:45.129Z,566.22222
2023-03-15T21:41:46.811Z,613.56522
2023-03-15T21:46:48.698Z,686.16867
2023-03-15T21:51:50.510Z,714
2023-03-15T21:56:52.105Z,652.04598
2023-03-15T22:01:53.785Z,592.42105
2023-03-15T22:06:55.385Z,599.31915
2023-03-15T22:11:56.998Z,606.36559
2023-03-15T22:16:58.716Z,620.92308
2023-03-15T22:22:00.464Z,620.92308
2023-03-15T22:27:02.062Z,704.49383
2023-03-15T22:32:03.704Z,644
2023-03-15T22:37:05.375Z,566.22222
2023-03-15T22:42:06.960Z,599.31915
2023-03-15T22:47:08.581Z,620.92308
2023-03-15T22:52:10.216Z,592.42105
2023-03-15T22:57:11.883Z,652.04598
2023-03-15T23:02:13.536Z,723.74684
2023-03-15T23:07:15.259Z,723.74684
2023-03-15T23:12:21.857Z,628.44444
2023-03-15T23:17:26.037Z,592.42105
2023-03-15T23:22:27.859Z,525.13208
2023-03-15T23:27:29.700Z,489.13274
2023-03-15T23:32:31.436Z,509.13761
2023-03-15T23:37:33.083Z,542.05825
2023-03-15T23:42:34.732Z,560
2023-03-15T23:47:36.352Z,620.92308
2023-03-15T23:52:38.140Z,0
2023-03-15T23:57:39.763Z,636.13483
